Dublín, Isla de Irlanda

4:47 AM IST en Septiembre 21, 2018 (GMT +0100)
Drogheda | | Change Station

Alt 72 ft 53.73 °N, 6.33 °W | Updated 10 seconds ago

Scattered Clouds
Nubes dispersas
42.6 ° F
Sensación térmica 43 ° F
N
1.1
Viento Variable Viento desde SE
Gusts 2.5 mph

Hoy
Alta -- | Baja -- ° F
--% Posibilidad de precipitaciones
Ayer
Alta -- | Baja -- ° F
Precip. -- pul
Presión 29.56 pul
Visibilidad 6.2 Millas
Nubes Baja 1000 ft
Nubes dispersas 10000 ft
Vientos helados 43 ° F
Punto de rocío 40 ° F
Humedad 92%
Precipitaciones 0.00 pul
Espesor de la nieve No disponible.
7:09 AM 7:26 PM
Gibosa creciente, 86% visible
METAR EIME 210300Z 23016KT 9999 FEW010 SCT100 06/05 Q1001
Presión 29.56 pul
Visibilidad 6.2 Millas
Nubes Baja 1000 ft
Nubes dispersas 10000 ft
Vientos helados 43 ° F
Punto de rocío 40 ° F
Humedad 92%
Precipitaciones 0.00 pul
Espesor de la nieve No disponible.
7:09 AM 7:26 PM
Gibosa creciente, 86% visible
METAR EIME 210300Z 23016KT 9999 FEW010 SCT100 06/05 Q1001

Get Severe Weather Alerts

Thanks for signing up!

Be on the lookout for a verification email in your inbox.

You'll start receiving the daily forecast at 6 AM.

×

10-Day Weather Forecast

×

Almanac

Astronomía

Sep. 21, 2018 Salida Puesta
Hora real
Crepúsculo civil
Crepúsculo náutico
Crepúsculo astronómico
Luna
Horas de luz
Horas de luz
Tomorrow will be .
, % of the Moon is Illuminated

Extremos de hoy

Máximos del país Bajas del país

Community

WunderPhotos

Category 6

Welcome to Category 6. This is the collective home for Weather Underground's featured writeups by Dr. Jeff Masters (right), Bob Henson (left), Chris Burt, and other regular contributors.

Nearby

Calidad del aire

  Calidad del aire Índice AQ Contaminante
Not available.

Grosos de nieve

Estación Profundido Altura

Actividad de terremotos

Ciudad Distance Mag. Tiempo y dato
Magnitud mínima muestra es 2,5.

Temperaturas de aguas costeras

Lugar Temperatura

Stations

Estaciones meteorológicas cercanas

Ubicación de la estación Temp. Vientos helados Punto de rocío Humedad Viento Precip. Alt Actualizado Tipo